Time;durP1;ratioP1;P1;durP2;ratioP2;P2;SDS_P1;SDS_P2;PMS_P1;PMS_P2;Temp;Humidity;BMP_temperature;BMP_pressure;BME280_temperature;BME280_humidity;BME280_pressure;Samples;Min_cycle;Max_cycle;Signal;HPM_P1;HPM_P2
2022/06/07 00:02:09;;;;;;;2.20;1.47;;;17.70;99.90;;;;;;5031659;28;20774;-75
2022/06/07 00:04:36;;;;;;;5.90;1.70;;;17.60;99.90;;;;;;5032132;28;20477;-75
2022/06/07 00:07:02;;;;;;;3.90;1.67;;;17.70;99.90;;;;;;5032032;28;20186;-74
2022/06/07 00:09:29;;;;;;;4.57;1.50;;;17.70;99.90;;;;;;5032146;28;20929;-74
2022/06/07 00:11:55;;;;;;;2.20;1.30;;;17.60;99.90;;;;;;5031583;28;20859;-74
2022/06/07 00:14:20;;;;;;;7.83;1.30;;;17.60;99.90;;;;;;5032133;28;20412;-74
2022/06/07 00:16:46;;;;;;;3.57;1.60;;;17.70;99.90;;;;;;5030561;28;20180;-74
2022/06/07 00:19:11;;;;;;;1.53;1.37;;;17.60;99.90;;;;;;5032100;28;20757;-73
2022/06/07 00:21:37;;;;;;;5.80;1.93;;;17.60;99.90;;;;;;5031538;28;20212;-74
2022/06/07 00:24:04;;;;;;;1.20;1.10;;;17.60;99.90;;;;;;5031455;28;20225;-74
2022/06/07 00:26:32;;;;;;;4.73;1.30;;;17.60;99.90;;;;;;5031725;28;20204;-74
2022/06/07 00:28:59;;;;;;;1.33;1.20;;;17.60;99.90;;;;;;5031650;28;20424;-75
2022/06/07 00:31:26;;;;;;;3.00;1.10;;;17.60;99.90;;;;;;5030043;28;20455;-74
2022/06/07 00:33:51;;;;;;;4.53;1.20;;;17.60;99.90;;;;;;5031569;28;20412;-74
2022/06/07 00:36:17;;;;;;;1.27;1.17;;;17.60;99.90;;;;;;5031657;28;20917;-75
2022/06/07 00:38:43;;;;;;;1.20;0.97;;;17.50;99.90;;;;;;5033160;28;20204;-75
2022/06/07 00:41:09;;;;;;;1.30;1.20;;;17.50;99.90;;;;;;5035414;28;20205;-75
2022/06/07 00:43:36;;;;;;;7.43;1.40;;;17.50;99.90;;;;;;5035822;28;20420;-75
2022/06/07 00:46:06;;;;;;;4.07;1.30;;;17.50;99.90;;;;;;5035724;28;20785;-74
2022/06/07 00:48:31;;;;;;;1.37;1.27;;;17.50;99.90;;;;;;5035568;28;20404;-74
2022/06/07 00:51:06;;;;;;;1.10;1.10;;;17.50;99.90;;;;;;5035370;28;20408;-74
2022/06/07 00:53:35;;;;;;;1.20;1.20;;;17.50;99.90;;;;;;5035517;28;20544;-74
2022/06/07 00:56:02;;;;;;;2.23;1.47;;;17.50;99.90;;;;;;5035500;28;20431;-74
2022/06/07 00:58:30;;;;;;;1.90;1.43;;;17.40;99.90;;;;;;5035297;28;20412;-72
2022/06/07 02:31:36;;;;;;;2.93;1.57;;;15.40;99.90;;;;;;5698299;23;20507;-74
2022/06/07 02:34:03;;;;;;;1.70;1.60;;;15.40;99.90;;;;;;5004309;28;20437;-74
2022/06/07 02:36:30;;;;;;;2.23;1.20;;;15.40;99.90;;;;;;5012275;28;20856;-74
2022/06/07 02:38:56;;;;;;;2.20;1.20;;;15.30;99.90;;;;;;5005069;28;20414;-72
2022/06/07 02:41:25;;;;;;;2.10;1.53;;;15.30;99.90;;;;;;4993741;28;20530;-74
2022/06/07 02:43:50;;;;;;;3.43;1.37;;;15.30;99.90;;;;;;4994062;28;20199;-74
2022/06/07 02:46:16;;;;;;;2.30;1.17;;;15.30;99.90;;;;;;4994179;28;21015;-74
2022/06/07 02:48:41;;;;;;;2.47;1.03;;;15.30;99.90;;;;;;4995359;28;20180;-71
2022/06/07 02:51:07;;;;;;;1.50;1.40;;;15.20;99.90;;;;;;4993443;28;20204;-74
2022/06/07 02:53:32;;;;;;;1.17;1.17;;;15.20;99.90;;;;;;4993863;28;20210;-71
2022/06/07 02:55:58;;;;;;;4.00;1.17;;;15.20;99.90;;;;;;4993892;28;20543;-74
2022/06/07 02:58:25;;;;;;;1.87;1.10;;;15.10;99.90;;;;;;4993728;28;20209;-74
2022/06/07 03:00:51;;;;;;;1.40;1.40;;;15.10;99.90;;;;;;4993410;28;20175;-74
2022/06/07 03:03:16;;;;;;;5.33;1.33;;;15.10;99.90;;;;;;4993582;28;20465;-74
2022/06/07 03:05:42;;;;;;;2.30;1.27;;;15.10;99.90;;;;;;4993495;28;20207;-74
2022/06/07 03:08:08;;;;;;;1.30;1.20;;;15.10;99.90;;;;;;4993634;28;20183;-74
2022/06/07 03:10:33;;;;;;;4.40;1.20;;;15.10;99.90;;;;;;4993289;28;20266;-73
2022/06/07 03:12:59;;;;;;;1.43;1.17;;;15.10;99.90;;;;;;4993347;28;20254;-74
2022/06/07 03:15:25;;;;;;;1.10;1.00;;;15.10;99.90;;;;;;4993449;28;20250;-74
2022/06/07 03:17:50;;;;;;;1.97;1.30;;;15.10;99.90;;;;;;4993403;28;20180;-74
2022/06/07 03:20:16;;;;;;;1.20;1.03;;;15.10;99.90;;;;;;4993215;28;20183;-75
2022/06/07 03:22:42;;;;;;;2.70;1.50;;;15.20;99.90;;;;;;4993113;28;20197;-74
2022/06/07 03:25:09;;;;;;;1.10;1.00;;;15.10;99.90;;;;;;4993110;28;20191;-73
2022/06/07 03:27:36;;;;;;;1.00;1.00;;;15.10;99.90;;;;;;4993436;28;20532;-74
2022/06/07 03:30:06;;;;;;;1.10;0.90;;;15.10;99.90;;;;;;4993134;28;20505;-74
2022/06/07 03:32:32;;;;;;;2.50;0.83;;;15.10;99.90;;;;;;4992755;28;20946;-72
2022/06/07 03:34:58;;;;;;;3.37;1.10;;;15.20;99.90;;;;;;4992918;28;20485;-73
2022/06/07 03:37:23;;;;;;;0.97;0.80;;;15.10;99.90;;;;;;4993089;28;20840;-74
2022/06/07 03:39:50;;;;;;;2.30;1.47;;;15.20;99.90;;;;;;4993045;28;20695;-74
2022/06/07 03:42:16;;;;;;;4.30;1.00;;;15.10;99.90;;;;;;4992523;28;20198;-74
2022/06/07 03:44:45;;;;;;;1.37;0.90;;;15.10;99.90;;;;;;4992889;28;20485;-74
2022/06/07 03:47:10;;;;;;;1.10;1.00;;;15.20;99.90;;;;;;4992876;28;20637;-74
2022/06/07 03:49:36;;;;;;;1.60;1.50;;;15.20;99.90;;;;;;4991735;28;20803;-74
2022/06/07 03:52:02;;;;;;;3.37;1.10;;;15.20;99.90;;;;;;4992421;28;20202;-74
2022/06/07 03:54:28;;;;;;;1.33;0.83;;;15.20;99.90;;;;;;4992786;28;20296;-74
2022/06/07 03:56:53;;;;;;;2.87;1.53;;;15.20;99.90;;;;;;4992669;28;20958;-74
2022/06/07 03:59:19;;;;;;;1.67;1.23;;;15.30;99.90;;;;;;4992806;28;20183;-74
2022/06/07 04:01:44;;;;;;;2.10;1.47;;;15.30;99.90;;;;;;4992448;28;20267;-74
2022/06/07 04:04:11;;;;;;;1.57;1.47;;;15.30;99.90;;;;;;4992332;28;20203;-72
2022/06/07 04:09:29;;;;;;;1.67;1.57;;;15.40;99.90;;;;;;4992528;28;20489;-72
2022/06/07 04:11:55;;;;;;;1.50;1.20;;;15.40;99.90;;;;;;4992174;28;20430;-71
2022/06/07 04:14:20;;;;;;;3.57;1.67;;;15.40;99.90;;;;;;4991431;28;20541;-72
2022/06/07 04:16:46;;;;;;;1.23;1.20;;;15.40;99.90;;;;;;4992254;28;20183;-72
2022/06/07 04:19:11;;;;;;;1.33;1.17;;;15.40;99.90;;;;;;4992031;28;20269;-72
2022/06/07 04:21:37;;;;;;;0.97;0.90;;;15.40;99.90;;;;;;4991910;28;20249;-72
2022/06/07 04:24:03;;;;;;;3.57;1.00;;;15.50;99.90;;;;;;4991961;28;20194;-72
2022/06/07 04:26:28;;;;;;;0.90;0.90;;;15.40;99.90;;;;;;4992261;28;20181;-72
2022/06/07 04:28:56;;;;;;;1.37;1.20;;;15.50;99.90;;;;;;4992262;28;20417;-72
2022/06/07 04:31:23;;;;;;;1.10;1.00;;;15.50;99.90;;;;;;4991602;28;20249;-72
2022/06/07 04:33:49;;;;;;;1.37;1.13;;;15.50;99.90;;;;;;4992413;28;20414;-71
2022/06/07 04:36:21;;;;;;;1.87;1.30;;;15.50;99.90;;;;;;4992030;28;20490;-72
2022/06/07 04:38:48;;;;;;;1.80;1.70;;;15.50;99.90;;;;;;4992091;28;20409;-72
2022/06/07 04:41:16;;;;;;;1.40;1.40;;;15.60;99.90;;;;;;4991561;28;20964;-72
2022/06/07 04:43:41;;;;;;;1.40;1.30;;;15.60;99.90;;;;;;4991940;28;20496;-72
2022/06/07 04:46:10;;;;;;;1.40;1.00;;;15.60;99.90;;;;;;4992864;28;20501;-72
2022/06/07 04:48:37;;;;;;;2.13;1.00;;;15.50;99.90;;;;;;4992303;28;20180;-72
2022/06/07 04:51:05;;;;;;;1.40;1.20;;;15.50;99.90;;;;;;4991475;28;20430;-72
2022/06/07 04:53:31;;;;;;;9.20;0.90;;;15.50;99.90;;;;;;4991810;28;20469;-72
2022/06/07 04:55:58;;;;;;;1.93;1.00;;;15.40;99.90;;;;;;4991683;28;20412;-70
2022/06/07 04:58:23;;;;;;;1.33;0.83;;;15.50;99.90;;;;;;4991743;28;20214;-71
2022/06/07 05:00:49;;;;;;;1.00;1.00;;;15.50;99.90;;;;;;4991508;28;20446;-72
2022/06/07 05:03:15;;;;;;;4.27;1.00;;;15.50;99.90;;;;;;4991382;28;20187;-71
2022/06/07 05:05:40;;;;;;;1.80;0.90;;;15.60;99.90;;;;;;4991619;28;20207;-71
2022/06/07 05:08:06;;;;;;;1.23;0.90;;;15.50;99.90;;;;;;4991218;28;20672;-71
2022/06/07 05:10:31;;;;;;;2.50;0.80;;;15.60;99.90;;;;;;4990681;28;20183;-71
2022/06/07 05:12:57;;;;;;;3.47;1.00;;;15.60;99.90;;;;;;4990942;28;20182;-70
2022/06/07 05:15:22;;;;;;;1.30;1.20;;;15.70;99.90;;;;;;4991471;28;20180;-73
2022/06/07 05:17:48;;;;;;;3.73;1.00;;;15.60;99.90;;;;;;4991525;28;20547;-72
2022/06/07 05:20:13;;;;;;;1.60;0.90;;;15.70;99.90;;;;;;4995432;28;20194;-73
2022/06/07 05:22:39;;;;;;;1.67;1.10;;;15.60;99.90;;;;;;5005199;28;20214;-72
2022/06/07 05:25:05;;;;;;;1.53;1.10;;;15.70;99.90;;;;;;5005519;28;20705;-73
2022/06/07 05:27:39;;;;;;;3.00;0.80;;;15.60;99.90;;;;;;5007189;28;20195;-72
2022/06/07 05:30:06;;;;;;;3.13;0.97;;;15.70;99.90;;;;;;5001328;28;20419;-73
2022/06/07 05:32:31;;;;;;;3.93;1.30;;;15.70;99.90;;;;;;5012008;28;20463;-73
2022/06/07 05:34:56;;;;;;;1.73;0.90;;;15.80;99.90;;;;;;5013636;28;20417;-73
2022/06/07 05:37:23;;;;;;;3.50;0.87;;;15.90;99.90;;;;;;5012670;28;20547;-73
2022/06/07 05:39:49;;;;;;;6.70;1.20;;;16.00;99.90;;;;;;5014655;28;20272;-73
2022/06/07 05:42:17;;;;;;;2.87;0.93;;;16.10;99.90;;;;;;5014863;28;20528;-73
2022/06/07 05:44:42;;;;;;;1.37;0.90;;;16.20;99.90;;;;;;5016295;28;20453;-74
2022/06/07 05:47:08;;;;;;;1.97;0.70;;;16.30;99.90;;;;;;5016320;28;20480;-73
2022/06/07 05:49:35;;;;;;;1.23;0.80;;;16.70;99.90;;;;;;5016379;28;20177;-73
2022/06/07 05:52:01;;;;;;;2.50;0.80;;;17.10;99.90;;;;;;5015077;28;20445;-74
2022/06/07 05:54:29;;;;;;;1.53;0.70;;;17.50;99.90;;;;;;5015843;28;21016;-74
2022/06/07 05:56:55;;;;;;;1.43;1.33;;;17.70;99.90;;;;;;5016327;28;20787;-73
2022/06/07 05:59:20;;;;;;;0.60;0.60;;;17.90;99.90;;;;;;5014720;28;20422;-73
2022/06/07 06:01:46;;;;;;;1.37;0.77;;;18.00;99.90;;;;;;5014136;28;20600;-73
2022/06/07 06:04:11;;;;;;;3.37;1.20;;;18.20;99.90;;;;;;5013944;28;20632;-73
2022/06/07 06:06:37;;;;;;;1.00;0.90;;;18.40;99.90;;;;;;5015144;28;20189;-74
2022/06/07 06:11:48;;;;;;;5.03;0.80;;;18.60;99.90;;;;;;5014038;28;20629;-73
2022/06/07 06:14:13;;;;;;;0.90;0.70;;;18.60;99.90;;;;;;5013886;28;20501;-73
2022/06/07 06:16:39;;;;;;;4.87;1.00;;;18.60;99.90;;;;;;5013968;28;20209;-73
2022/06/07 06:19:05;;;;;;;0.97;0.87;;;18.60;99.90;;;;;;5013651;28;20179;-73
2022/06/07 06:21:48;;;;;;;0.70;0.70;;;18.80;99.90;;;;;;5013626;28;20207;-73
2022/06/07 06:24:15;;;;;;;2.50;0.70;;;18.80;99.90;;;;;;5013563;28;20540;-73
2022/06/07 06:26:42;;;;;;;1.60;0.70;;;18.80;99.90;;;;;;5013889;28;20468;-73
2022/06/07 06:29:08;;;;;;;3.07;0.70;;;19.00;99.90;;;;;;5013543;28;20775;-73
2022/06/07 06:31:35;;;;;;;3.97;0.60;;;19.00;99.90;;;;;;5013435;28;20453;-73
2022/06/07 06:34:01;;;;;;;2.77;0.90;;;19.30;99.90;;;;;;5013511;28;20993;-73
2022/06/07 06:36:27;;;;;;;2.83;0.70;;;19.50;99.90;;;;;;5013189;28;20425;-74
2022/06/07 06:38:54;;;;;;;1.33;0.60;;;19.70;99.90;;;;;;5013487;28;20417;-73
2022/06/07 06:41:24;;;;;;;1.83;1.13;;;20.10;99.90;;;;;;5013271;28;20470;-73
2022/06/07 06:43:51;;;;;;;3.90;0.90;;;20.40;99.90;;;;;;5013344;28;20496;-74
2022/06/07 06:46:21;;;;;;;2.83;0.70;;;20.70;99.90;;;;;;5013902;28;20434;-72
2022/06/07 06:48:46;;;;;;;5.40;0.97;;;20.90;99.90;;;;;;5013187;28;20489;-73
2022/06/07 06:51:15;;;;;;;1.23;0.80;;;20.90;99.90;;;;;;5012833;28;20571;-72
2022/06/07 06:53:42;;;;;;;1.63;0.80;;;21.00;99.90;;;;;;5013254;28;20225;-73
2022/06/07 06:56:08;;;;;;;1.83;0.83;;;21.10;99.90;;;;;;5013190;28;20816;-74
2022/06/07 06:58:34;;;;;;;1.27;0.60;;;21.10;99.90;;;;;;5013091;28;20508;-73
2022/06/07 07:01:06;;;;;;;0.90;0.63;;;21.10;99.90;;;;;;5012962;28;21017;-73
2022/06/07 07:03:33;;;;;;;0.90;0.73;;;21.50;99.90;;;;;;5012640;28;20178;-70
2022/06/07 07:06:00;;;;;;;2.60;1.07;;;22.10;99.90;;;;;;5011100;28;20457;-73
2022/06/07 07:08:26;;;;;;;1.33;0.73;;;22.40;99.90;;;;;;5011453;28;20791;-73
2022/06/07 07:11:15;;;;;;;3.90;0.80;;;22.80;99.90;;;;;;5010908;28;20728;-73
2022/06/07 07:13:41;;;;;;;0.90;0.73;;;23.20;99.90;;;;;;5011120;28;20416;-71
2022/06/07 07:16:09;;;;;;;3.23;0.70;;;23.30;99.90;;;;;;5010918;28;20402;-73
2022/06/07 07:18:35;;;;;;;1.67;0.70;;;23.20;99.90;;;;;;5012072;28;20541;-73
2022/06/07 07:21:07;;;;;;;1.33;0.70;;;22.90;99.90;;;;;;5012328;28;21013;-72
2022/06/07 07:23:33;;;;;;;1.63;0.70;;;23.00;99.90;;;;;;5012574;28;20780;-73
2022/06/07 07:26:26;;;;;;;3.80;0.90;;;23.40;99.90;;;;;;5012432;28;20464;-73
2022/06/07 07:28:55;;;;;;;0.60;0.60;;;24.20;99.90;;;;;;5011178;28;20425;-73
2022/06/07 07:31:27;;;;;;;0.80;0.80;;;24.40;99.90;;;;;;5011846;28;20540;-74
2022/06/07 07:33:53;;;;;;;2.33;0.70;;;24.70;99.90;;;;;;5012598;28;20440;-73
2022/06/07 07:36:20;;;;;;;1.80;0.50;;;25.30;99.90;;;;;;5012292;28;20418;-73
2022/06/07 07:38:46;;;;;;;0.93;0.70;;;25.70;99.90;;;;;;5012483;28;20405;-74
2022/06/07 07:41:17;;;;;;;0.73;0.73;;;25.20;99.90;;;;;;5011859;28;20787;-72
2022/06/07 07:43:42;;;;;;;3.87;0.80;;;24.30;99.90;;;;;;5012278;28;20426;-73
2022/06/07 07:46:08;;;;;;;1.37;0.67;;;24.10;99.90;;;;;;5012193;28;20446;-74
2022/06/07 07:48:34;;;;;;;2.50;0.70;;;24.40;99.90;;;;;;5011740;28;20175;-74
2022/06/07 07:51:04;;;;;;;0.60;0.60;;;24.60;99.90;;;;;;5011966;28;20564;-73
2022/06/07 07:53:30;;;;;;;1.37;0.60;;;24.60;99.90;;;;;;5012207;28;20262;-73
2022/06/07 07:55:55;;;;;;;5.07;0.80;;;24.30;99.90;;;;;;5010918;28;20457;-73
2022/06/07 07:58:22;;;;;;;2.50;0.80;;;23.90;99.90;;;;;;5011840;28;20194;-71
2022/06/07 08:00:49;;;;;;;1.00;0.77;;;23.60;99.90;;;;;;5011741;28;20707;-73
2022/06/07 08:03:15;;;;;;;4.13;0.90;;;23.60;99.90;;;;;;5011860;28;20841;-73
2022/06/07 08:05:41;;;;;;;1.00;0.70;;;23.80;99.90;;;;;;5012009;28;20985;-73
2022/06/07 08:08:07;;;;;;;5.80;0.60;;;24.10;99.90;;;;;;5011830;28;20430;-73
2022/06/07 08:10:34;;;;;;;2.10;0.53;;;24.40;99.90;;;;;;5011945;28;20564;-72
2022/06/07 08:13:00;;;;;;;3.30;0.80;;;25.00;99.90;;;;;;5011900;28;20410;-73
2022/06/07 08:15:29;;;;;;;2.20;0.70;;;25.20;99.90;;;;;;5012068;28;20491;-73
2022/06/07 08:17:55;;;;;;;2.83;0.77;;;25.20;99.90;;;;;;5011829;28;20422;-73
2022/06/07 08:20:22;;;;;;;2.47;0.70;;;25.00;99.90;;;;;;5011617;28;20428;-74
2022/06/07 08:22:48;;;;;;;0.80;0.80;;;25.30;99.90;;;;;;5011406;28;20433;-73
2022/06/07 08:25:13;;;;;;;2.97;0.60;;;25.30;99.90;;;;;;5011629;28;20449;-73
2022/06/07 08:27:39;;;;;;;1.70;0.60;;;25.10;99.90;;;;;;5011533;28;20410;-73
2022/06/07 08:30:06;;;;;;;0.97;0.50;;;25.50;99.90;;;;;;5011605;28;20256;-73
2022/06/07 08:32:32;;;;;;;0.70;0.60;;;25.50;99.90;;;;;;5011327;28;20675;-73
2022/06/07 08:37:43;;;;;;;0.97;0.80;;;25.70;99.90;;;;;;5011628;28;20467;-73
2022/06/07 08:40:14;;;;;;;1.50;0.90;;;25.70;99.90;;;;;;5011414;28;20816;-75
2022/06/07 08:42:53;;;;;;;2.07;1.60;;;25.90;99.90;;;;;;5011740;28;20686;-72
2022/06/07 08:45:24;;;;;;;1.80;0.80;;;26.30;99.90;;;;;;5011542;28;20463;-74
2022/06/07 08:47:51;;;;;;;9.00;1.37;;;26.90;99.90;;;;;;5012542;28;20468;-74
2022/06/07 08:50:19;;;;;;;0.90;0.60;;;27.40;99.90;;;;;;5011722;28;20556;-74
2022/06/07 08:52:48;;;;;;;1.47;0.97;;;27.40;99.90;;;;;;5009957;28;20457;-74
2022/06/07 08:55:23;;;;;;;4.90;1.50;;;27.10;99.90;;;;;;5011126;28;20516;-74
2022/06/07 08:57:55;;;;;;;2.30;1.10;;;27.30;99.90;;;;;;5011340;28;20451;-74
2022/06/07 09:00:31;;;;;;;1.17;0.90;;;27.70;99.90;;;;;;5013885;28;20910;-74
2022/06/07 09:03:15;;;;;;;0.93;0.90;;;27.40;99.90;;;;;;5015252;28;20450;-74
2022/06/07 09:05:40;;;;;;;2.30;0.57;;;27.80;99.90;;;;;;5016070;28;20460;-75
2022/06/07 09:08:10;;;;;;;1.33;0.70;;;27.70;99.90;;;;;;5016090;28;20468;-73
2022/06/07 09:13:23;;;;;;;1.53;0.60;;;27.30;99.90;;;;;;5016149;28;20420;-74
2022/06/07 09:15:52;;;;;;;1.73;0.60;;;27.70;99.90;;;;;;5016160;28;20449;-74
2022/06/07 09:18:20;;;;;;;1.30;0.60;;;28.20;99.90;;;;;;5015287;28;20508;-74
2022/06/07 09:20:48;;;;;;;1.07;0.70;;;28.60;99.90;;;;;;5014967;28;20417;-75
2022/06/07 09:23:34;;;;;;;2.97;0.67;;;28.30;99.90;;;;;;5015061;28;20421;-74
2022/06/07 09:26:18;;;;;;;1.80;0.60;;;27.40;99.90;;;;;;5014921;28;20449;-74
2022/06/07 09:28:47;;;;;;;2.67;0.60;;;27.40;99.90;;;;;;5015196;28;20423;-71
2022/06/07 09:31:20;;;;;;;1.60;0.70;;;27.40;99.90;;;;;;5014604;28;20447;-73
2022/06/07 09:33:52;;;;;;;0.60;0.60;;;27.60;99.90;;;;;;5014984;28;20417;-74
2022/06/07 09:36:26;;;;;;;1.93;0.67;;;28.00;99.90;;;;;;5014683;28;20409;-74
2022/06/07 09:38:56;;;;;;;1.70;0.80;;;28.20;99.90;;;;;;5014781;28;20415;-72
2022/06/07 09:41:42;;;;;;;2.60;0.70;;;27.60;99.90;;;;;;5014340;28;20775;-72
2022/06/07 09:44:30;;;;;;;0.70;0.60;;;27.80;99.90;;;;;;5015264;28;20809;-72
2022/06/07 09:47:05;;;;;;;0.80;0.80;;;27.80;99.90;;;;;;5014619;28;20410;-72
2022/06/07 09:49:34;;;;;;;0.70;0.50;;;27.40;99.90;;;;;;5014364;28;20425;-73
2022/06/07 09:52:25;;;;;;;2.87;0.60;;;26.40;99.90;;;;;;5014084;28;20456;-72
2022/06/07 09:54:55;;;;;;;2.40;0.97;;;25.40;99.90;;;;;;5014359;28;20548;-71
2022/06/07 09:57:41;;;;;;;1.47;0.60;;;24.70;99.90;;;;;;5013965;28;20424;-72
2022/06/07 10:00:19;;;;;;;2.10;0.90;;;23.90;99.90;;;;;;5014096;28;20464;-71
2022/06/07 10:03:17;;;;;;;1.53;0.63;;;23.60;99.90;;;;;;5012560;28;20433;-71
2022/06/07 10:05:54;;;;;;;0.50;0.50;;;23.60;99.90;;;;;;5000016;28;20473;-71
2022/06/07 10:08:55;;;;;;;4.27;1.03;;;24.00;99.90;;;;;;5015157;28;20536;-70
2022/06/07 10:11:43;;;;;;;1.17;0.70;;;25.20;99.90;;;;;;5014930;28;20438;-69
2022/06/07 10:14:24;;;;;;;1.30;0.70;;;25.60;99.90;;;;;;5014609;28;20964;-72
2022/06/07 10:17:11;;;;;;;0.60;0.50;;;25.50;99.90;;;;;;5013950;28;20420;-72
2022/06/07 10:20:03;;;;;;;0.50;0.50;;;26.50;99.90;;;;;;5013779;28;20409;-71
2022/06/07 10:22:58;;;;;;;1.10;0.67;;;26.30;99.90;;;;;;5013455;28;20838;-71
2022/06/07 10:25:35;;;;;;;0.70;0.70;;;25.80;99.90;;;;;;5013570;28;20469;-74
2022/06/07 10:28:27;;;;;;;1.40;0.70;;;25.60;99.90;;;;;;5013428;28;20833;-71
2022/06/07 10:30:56;;;;;;;1.00;0.60;;;25.10;99.90;;;;;;5013158;28;20416;-72
2022/06/07 10:33:27;;;;;;;0.73;0.57;;;24.70;99.90;;;;;;5013334;28;20480;-72
2022/06/07 10:35:57;;;;;;;2.43;0.80;;;24.20;99.90;;;;;;5013450;28;20449;-72
2022/06/07 10:38:35;;;;;;;1.27;0.70;;;23.80;99.90;;;;;;5013269;28;20934;-71
2022/06/07 10:41:13;;;;;;;1.03;0.63;;;23.70;99.90;;;;;;5013116;28;20441;-71
2022/06/07 10:43:50;;;;;;;0.80;0.60;;;23.80;99.90;;;;;;5013361;28;20445;-73
2022/06/07 10:46:17;;;;;;;3.60;0.87;;;24.20;99.90;;;;;;5013962;28;20508;-72
2022/06/07 10:49:00;;;;;;;0.73;0.73;;;24.80;99.90;;;;;;5013562;28;20398;-72
2022/06/07 10:54:44;;;;;;;0.60;0.60;;;25.10;99.90;;;;;;5013990;28;20413;-73
2022/06/07 10:57:25;;;;;;;1.53;0.70;;;25.70;99.90;;;;;;5012044;28;20421;-72
2022/06/07 10:59:52;;;;;;;2.60;0.67;;;25.70;99.90;;;;;;5012316;28;20413;-72
2022/06/07 11:02:26;;;;;;;2.03;0.60;;;25.40;99.90;;;;;;5012977;28;20430;-72
2022/06/07 11:11:14;;;;;;;1.03;0.67;;;24.10;99.90;;;;;;5010357;28;20452;-73
2022/06/07 11:13:40;;;;;;;0.60;0.60;;;23.90;99.90;;;;;;5007204;28;20473;-69
2022/06/07 11:16:22;;;;;;;1.13;0.70;;;23.90;99.90;;;;;;5006250;28;20516;-71
2022/06/07 11:18:48;;;;;;;1.17;0.70;;;23.90;99.90;;;;;;5001075;28;20427;-72
2022/06/07 11:21:34;;;;;;;1.43;0.80;;;23.60;99.90;;;;;;5000727;28;20440;-72
2022/06/07 11:24:04;;;;;;;3.83;0.60;;;23.40;99.90;;;;;;5007087;28;20201;-72
2022/06/07 11:26:58;;;;;;;1.43;0.50;;;23.40;99.90;;;;;;5012844;28;20437;-71
2022/06/07 11:29:29;;;;;;;0.73;0.73;;;23.30;99.90;;;;;;5005310;28;20472;-73
2022/06/07 11:31:55;;;;;;;1.50;0.77;;;23.30;99.90;;;;;;5012329;28;20457;-72
2022/06/07 11:34:27;;;;;;;1.73;0.60;;;23.30;99.90;;;;;;5011099;28;20502;-72
2022/06/07 11:37:16;;;;;;;0.83;0.60;;;23.20;99.90;;;;;;5012481;28;20779;-72
2022/06/07 11:39:51;;;;;;;1.47;0.70;;;23.40;99.90;;;;;;5006875;28;20440;-71
2022/06/07 11:42:35;;;;;;;2.77;1.03;;;23.70;99.90;;;;;;5012062;28;20532;-72
2022/06/07 11:45:04;;;;;;;7.70;0.70;;;24.00;99.90;;;;;;5012320;28;20468;-72
2022/06/07 11:47:34;;;;;;;1.20;0.80;;;24.20;99.90;;;;;;5012302;28;20414;-72
2022/06/07 11:50:13;;;;;;;2.40;0.80;;;24.30;99.90;;;;;;5012154;28;20843;-71
2022/06/07 11:52:55;;;;;;;1.93;0.90;;;24.50;99.90;;;;;;5012217;28;20433;-72
2022/06/07 11:55:24;;;;;;;7.30;1.40;;;24.30;99.90;;;;;;5012186;28;20504;-72
2022/06/07 11:57:54;;;;;;;0.90;0.87;;;24.10;99.90;;;;;;5012089;28;20425;-72
2022/06/07 12:00:19;;;;;;;3.17;0.90;;;24.00;99.90;;;;;;5012011;28;20795;-72
2022/06/07 12:02:56;;;;;;;2.73;0.60;;;23.80;99.90;;;;;;5011818;28;20483;-72
2022/06/07 12:05:28;;;;;;;5.00;0.90;;;23.70;99.90;;;;;;5012073;28;20240;-72
2022/06/07 12:08:17;;;;;;;0.90;0.87;;;23.70;99.90;;;;;;5011851;28;20410;-73
2022/06/07 12:11:21;;;;;;;1.20;0.70;;;23.50;99.90;;;;;;5011819;28;20776;-71
2022/06/07 12:14:24;;;;;;;3.33;0.67;;;23.40;99.90;;;;;;5011797;28;20994;-72
2022/06/07 12:16:55;;;;;;;0.70;0.70;;;23.20;99.90;;;;;;5010283;28;20425;-72
2022/06/07 12:19:28;;;;;;;1.67;1.33;;;23.10;99.90;;;;;;5011834;28;20996;-72
2022/06/07 12:22:05;;;;;;;0.80;0.60;;;23.10;99.90;;;;;;5009806;28;20535;-71
2022/06/07 12:24:43;;;;;;;1.67;0.80;;;23.10;99.90;;;;;;5000226;28;20533;-72
2022/06/07 12:27:30;;;;;;;1.17;0.57;;;23.30;99.90;;;;;;4992113;28;20414;-70
2022/06/07 12:30:13;;;;;;;3.77;0.80;;;23.30;99.90;;;;;;4992139;28;20406;-72
2022/06/07 12:32:38;;;;;;;2.20;0.87;;;23.40;99.90;;;;;;5000711;28;20816;-72
2022/06/07 12:35:27;;;;;;;2.20;0.80;;;23.40;99.90;;;;;;4991705;28;20410;-72
2022/06/07 12:37:56;;;;;;;2.90;0.77;;;23.50;99.90;;;;;;4991852;28;20576;-71
2022/06/07 12:40:24;;;;;;;0.70;0.70;;;23.60;99.90;;;;;;4991819;28;20423;-73
2022/06/07 12:42:49;;;;;;;3.27;0.90;;;23.60;99.90;;;;;;4991707;28;20422;-72
2022/06/07 12:45:34;;;;;;;2.30;0.70;;;23.70;99.90;;;;;;4991680;28;20466;-72
2022/06/07 12:48:08;;;;;;;3.63;0.83;;;23.60;99.90;;;;;;4993977;28;20202;-69
2022/06/07 12:50:37;;;;;;;0.77;0.77;;;23.80;99.90;;;;;;5003098;28;20425;-70
2022/06/07 12:53:04;;;;;;;1.37;0.70;;;23.50;99.90;;;;;;5011274;28;20412;-71
2022/06/07 12:55:32;;;;;;;1.60;0.60;;;23.60;99.90;;;;;;5008012;28;20504;-72
2022/06/07 12:58:04;;;;;;;2.20;0.60;;;23.90;99.90;;;;;;5001379;28;20425;-72
2022/06/07 13:00:44;;;;;;;1.20;0.80;;;24.10;99.90;;;;;;5001484;28;20824;-72
2022/06/07 13:03:32;;;;;;;1.73;0.60;;;24.50;99.90;;;;;;4999454;28;20785;-72
2022/06/07 13:06:05;;;;;;;1.00;0.67;;;24.90;99.90;;;;;;5001971;28;20500;-71
2022/06/07 13:08:39;;;;;;;2.63;0.60;;;24.70;99.90;;;;;;5000559;28;20428;-72
2022/06/07 13:11:11;;;;;;;6.93;0.60;;;24.60;99.90;;;;;;5000918;28;20778;-71
2022/06/07 13:13:39;;;;;;;2.50;0.80;;;24.30;99.90;;;;;;5001839;28;20425;-71
2022/06/07 13:16:10;;;;;;;0.80;0.53;;;24.20;99.90;;;;;;5001219;28;20442;-72
2022/06/07 13:18:41;;;;;;;2.20;0.73;;;24.20;99.90;;;;;;5001951;28;20433;-71
2022/06/07 13:21:20;;;;;;;1.20;0.60;;;24.50;99.90;;;;;;4995880;28;20453;-71
2022/06/07 13:23:51;;;;;;;1.83;0.70;;;24.60;99.90;;;;;;4992277;28;20505;-72
2022/06/07 13:26:42;;;;;;;2.03;0.67;;;24.60;99.90;;;;;;5007825;28;20438;-70
2022/06/07 13:29:08;;;;;;;3.43;0.77;;;24.80;99.90;;;;;;5006892;28;20410;-71
2022/06/07 13:31:52;;;;;;;0.60;0.60;;;24.80;99.90;;;;;;5002313;28;20572;-72
2022/06/07 13:34:26;;;;;;;2.03;1.83;;;24.60;99.90;;;;;;5010705;28;20795;-72
2022/06/07 13:37:11;;;;;;;1.17;0.60;;;24.70;99.90;;;;;;5010850;28;20422;-72
2022/06/07 13:39:41;;;;;;;0.60;0.60;;;24.80;99.90;;;;;;4999085;28;20457;-73
2022/06/07 13:42:07;;;;;;;0.87;0.83;;;24.80;99.90;;;;;;4998783;28;20471;-72
2022/06/07 13:44:40;;;;;;;1.33;0.70;;;24.70;99.90;;;;;;4991399;28;20982;-71
2022/06/07 13:47:22;;;;;;;7.00;0.70;;;24.50;99.90;;;;;;4993056;28;20180;-72
2022/06/07 13:53:25;;;;;;;0.80;0.80;;;23.90;99.90;;;;;;4986166;28;20414;-73
2022/06/07 13:55:53;;;;;;;0.57;0.57;;;23.50;99.90;;;;;;4994993;28;20422;-73
2022/06/07 13:58:21;;;;;;;3.80;1.70;;;23.40;99.90;;;;;;4994326;28;20501;-74
2022/06/07 14:00:47;;;;;;;1.63;0.77;;;23.40;99.90;;;;;;4994402;28;20402;-73
2022/06/07 14:03:25;;;;;;;4.07;0.80;;;23.20;99.90;;;;;;4994377;28;20410;-72
2022/06/07 14:05:51;;;;;;;0.80;0.60;;;23.10;99.90;;;;;;4994486;28;21081;-73
2022/06/07 14:08:17;;;;;;;0.50;0.50;;;23.10;99.90;;;;;;4994434;28;20509;-73
2022/06/07 14:10:44;;;;;;;7.20;0.70;;;23.10;99.90;;;;;;4994194;28;20207;-73
2022/06/07 14:13:10;;;;;;;0.90;0.90;;;23.10;99.90;;;;;;4994173;28;20574;-72
2022/06/07 14:15:37;;;;;;;2.50;0.80;;;23.20;99.90;;;;;;4994388;28;20508;-73
2022/06/07 14:18:06;;;;;;;1.00;0.60;;;23.50;99.90;;;;;;4994186;28;20469;-72
2022/06/07 14:20:35;;;;;;;0.80;0.70;;;23.70;99.90;;;;;;4994185;28;20419;-71
2022/06/07 14:23:01;;;;;;;1.80;0.90;;;24.00;99.90;;;;;;4994128;28;20411;-72
2022/06/07 14:25:27;;;;;;;1.40;0.70;;;24.20;99.90;;;;;;4994125;28;20548;-73
2022/06/07 14:27:54;;;;;;;2.53;0.73;;;24.10;99.90;;;;;;4994254;28;20419;-73
2022/06/07 14:30:21;;;;;;;2.40;0.80;;;24.10;99.90;;;;;;4993891;28;20410;-73
2022/06/07 14:32:51;;;;;;;0.60;0.60;;;24.20;99.90;;;;;;4993928;28;20453;-73
2022/06/07 14:35:20;;;;;;;1.03;0.70;;;24.20;99.90;;;;;;4993834;28;20427;-74
2022/06/07 14:37:47;;;;;;;1.00;0.60;;;24.10;99.90;;;;;;4994121;28;20414;-73
2022/06/07 14:40:21;;;;;;;1.67;0.70;;;24.20;99.90;;;;;;4993634;28;20411;-73
2022/06/07 14:42:47;;;;;;;0.80;0.80;;;24.40;99.90;;;;;;4993944;28;20499;-73
2022/06/07 14:45:15;;;;;;;2.40;0.70;;;24.40;99.90;;;;;;4993639;28;20977;-73
2022/06/07 14:47:45;;;;;;;3.20;0.70;;;24.40;99.90;;;;;;4993964;28;20429;-73
2022/06/07 14:50:20;;;;;;;1.87;0.93;;;24.30;99.90;;;;;;5000531;28;20448;-73
2022/06/07 14:52:47;;;;;;;2.50;0.67;;;24.30;99.90;;;;;;5005153;28;20464;-73
2022/06/07 14:55:20;;;;;;;0.83;0.70;;;24.30;99.90;;;;;;5013228;28;20421;-73
2022/06/07 14:57:47;;;;;;;2.80;0.70;;;24.40;99.90;;;;;;5013170;28;20723;-73
2022/06/07 15:00:19;;;;;;;0.80;0.80;;;24.30;99.90;;;;;;5012802;28;20417;-73